Time;durP1;ratioP1;P1;durP2;ratioP2;P2;SDS_P1;SDS_P2;PMS_P1;PMS_P2;Temp;Humidity;BMP_temperature;BMP_pressure;BME280_temperature;BME280_humidity;BME280_pressure;Samples;Min_cycle;Max_cycle;Signal;HPM_P1;HPM_P2
2021/08/09 00:01:03;;;;;;;13.50;5.72;;;14.30;99.90;;;;;;5108654;28;20050;-51
2021/08/09 00:03:31;;;;;;;7.93;5.22;;;14.30;99.90;;;;;;5090596;28;20138;-52
2021/08/09 00:06:00;;;;;;;10.85;5.07;;;14.30;99.90;;;;;;5091896;28;20052;-52
2021/08/09 00:08:29;;;;;;;9.93;5.43;;;14.30;99.90;;;;;;5112206;28;20518;-53
2021/08/09 00:10:55;;;;;;;11.13;5.32;;;14.30;99.90;;;;;;5073378;28;20100;-51
2021/08/09 00:13:24;;;;;;;13.73;5.70;;;14.30;99.90;;;;;;5109261;28;20054;-51
2021/08/09 00:15:50;;;;;;;13.60;5.90;;;14.30;99.90;;;;;;5107726;28;20133;-53
2021/08/09 00:18:18;;;;;;;9.18;5.43;;;14.30;99.90;;;;;;5108057;28;20499;-51
2021/08/09 00:20:48;;;;;;;11.02;5.70;;;14.30;99.90;;;;;;5113241;27;20051;-53
2021/08/09 00:23:14;;;;;;;12.32;5.90;;;14.40;99.90;;;;;;5107409;28;20055;-52
2021/08/09 00:25:41;;;;;;;10.70;4.80;;;14.40;99.90;;;;;;5114626;28;20046;-54
2021/08/09 00:28:07;;;;;;;8.85;4.60;;;14.50;99.90;;;;;;5104471;28;20051;-51
2021/08/09 00:30:33;;;;;;;10.85;5.60;;;14.50;99.90;;;;;;5090084;28;20499;-53
2021/08/09 00:33:02;;;;;;;14.23;5.93;;;14.50;99.90;;;;;;5111456;28;20043;-54
2021/08/09 00:35:29;;;;;;;11.57;5.53;;;14.50;99.90;;;;;;5112218;28;20116;-53
2021/08/09 00:37:58;;;;;;;13.32;5.95;;;14.50;99.90;;;;;;5073334;28;20576;-53
2021/08/09 00:40:27;;;;;;;14.38;6.40;;;14.50;99.90;;;;;;5088926;28;20063;-52
2021/08/09 00:42:54;;;;;;;14.73;5.82;;;14.50;99.90;;;;;;5068773;28;20415;-55
2021/08/09 00:45:22;;;;;;;11.40;5.40;;;14.50;99.90;;;;;;5092505;28;20120;-52
2021/08/09 00:47:49;;;;;;;20.17;6.25;;;14.50;99.90;;;;;;5108385;28;20043;-53
2021/08/09 00:50:16;;;;;;;10.32;5.70;;;14.50;99.90;;;;;;5097821;28;20047;-54
2021/08/09 00:52:44;;;;;;;11.98;5.88;;;14.50;99.90;;;;;;5094796;28;20122;-50
2021/08/09 00:55:11;;;;;;;12.52;4.95;;;14.50;99.90;;;;;;5088004;28;20119;-54
2021/08/09 00:57:39;;;;;;;10.88;5.13;;;14.50;99.90;;;;;;5089992;28;20122;-53
2021/08/09 01:00:08;;;;;;;12.25;5.10;;;14.50;99.90;;;;;;5089514;28;20060;-51
2021/08/09 01:02:41;;;;;;;14.13;5.10;;;14.50;99.90;;;;;;5093747;28;20373;-52
2021/08/09 01:05:09;;;;;;;16.20;5.97;;;14.50;99.90;;;;;;5090237;28;20510;-51
2021/08/09 01:07:45;;;;;;;12.23;5.10;;;14.50;99.90;;;;;;5089127;28;20055;-52
2021/08/09 01:10:20;;;;;;;12.45;5.50;;;14.50;99.90;;;;;;5085868;28;20047;-50
2021/08/09 01:13:02;;;;;;;11.57;5.38;;;14.60;99.90;;;;;;5093616;28;20039;-53
2021/08/09 01:15:36;;;;;;;11.20;5.03;;;14.60;99.90;;;;;;5093056;28;20047;-51
2021/08/09 01:18:05;;;;;;;17.38;5.07;;;14.70;99.90;;;;;;5088915;28;20475;-54
2021/08/09 01:20:48;;;;;;;10.27;5.32;;;14.70;99.90;;;;;;5088736;28;20046;-52
2021/08/09 01:23:53;;;;;;;10.68;5.15;;;14.70;99.90;;;;;;5086232;28;20089;-52
2021/08/09 01:26:53;;;;;;;11.35;4.88;;;14.80;99.90;;;;;;5085913;27;20048;-50
2021/08/09 01:29:43;;;;;;;13.82;5.65;;;14.80;99.90;;;;;;5094234;28;20043;-50
2021/08/09 01:32:11;;;;;;;12.88;5.03;;;14.70;99.90;;;;;;5107669;28;20131;-53
2021/08/09 01:34:38;;;;;;;9.50;5.95;;;14.80;99.90;;;;;;5091173;28;20049;-51
2021/08/09 01:37:06;;;;;;;11.63;5.07;;;14.70;99.90;;;;;;5075466;28;20471;-49
2021/08/09 01:39:36;;;;;;;10.23;5.20;;;14.80;99.90;;;;;;5072679;28;20047;-52
2021/08/09 01:42:06;;;;;;;12.38;5.20;;;14.80;99.90;;;;;;5086907;28;20109;-51
2021/08/09 01:44:34;;;;;;;13.43;4.95;;;14.80;99.90;;;;;;5089501;28;20051;-49
2021/08/09 01:47:01;;;;;;;12.88;4.90;;;14.80;99.90;;;;;;5077661;28;20050;-50
2021/08/09 01:49:32;;;;;;;13.80;6.13;;;14.80;99.90;;;;;;5092696;28;20549;-50
2021/08/09 01:52:01;;;;;;;9.48;4.72;;;14.80;99.90;;;;;;5089103;28;20055;-50
2021/08/09 01:54:28;;;;;;;15.30;5.28;;;14.70;99.90;;;;;;5087861;28;20120;-49
2021/08/09 01:56:56;;;;;;;10.82;4.63;;;14.70;99.90;;;;;;5069550;28;20060;-49
2021/08/09 01:59:23;;;;;;;10.05;5.50;;;14.60;99.90;;;;;;5087692;28;20138;-49
2021/08/09 02:01:51;;;;;;;13.15;5.45;;;14.50;99.90;;;;;;5081218;28;20575;-50
2021/08/09 02:04:21;;;;;;;11.82;5.63;;;14.50;99.90;;;;;;5072718;28;20407;-50
2021/08/09 02:06:51;;;;;;;12.95;5.80;;;14.40;99.90;;;;;;5094122;28;20036;-52
2021/08/09 02:09:20;;;;;;;14.95;5.57;;;14.30;99.90;;;;;;5081611;28;20052;-52
2021/08/09 02:12:00;;;;;;;9.63;5.63;;;14.20;99.90;;;;;;5074423;28;20048;-52
2021/08/09 02:14:32;;;;;;;11.05;6.07;;;14.10;99.90;;;;;;5085302;28;20316;-50
2021/08/09 02:17:07;;;;;;;10.68;5.47;;;14.00;99.90;;;;;;5089403;28;20128;-53
2021/08/09 02:19:46;;;;;;;11.75;4.85;;;14.00;99.90;;;;;;5088179;28;20054;-49
2021/08/09 02:22:37;;;;;;;11.93;5.68;;;13.90;99.90;;;;;;5088094;28;20047;-51
2021/08/09 02:25:13;;;;;;;17.80;5.90;;;13.80;99.90;;;;;;5104902;28;20048;-51
2021/08/09 02:27:46;;;;;;;12.73;5.45;;;13.80;99.90;;;;;;5092127;28;20117;-52
2021/08/09 02:30:16;;;;;;;15.02;5.85;;;13.70;99.90;;;;;;5107004;28;20065;-51
2021/08/09 02:32:45;;;;;;;13.70;6.22;;;13.70;99.90;;;;;;5087348;28;20032;-50
2021/08/09 02:35:15;;;;;;;15.80;5.78;;;13.70;99.90;;;;;;5089763;28;20067;-52
2021/08/09 02:37:47;;;;;;;10.55;5.53;;;13.70;99.90;;;;;;5092810;28;20436;-53
2021/08/09 02:40:15;;;;;;;11.48;6.55;;;13.60;99.90;;;;;;5105980;28;20051;-52
2021/08/09 02:42:43;;;;;;;17.13;7.10;;;13.60;99.90;;;;;;5078743;28;20589;-51
2021/08/09 02:45:11;;;;;;;17.08;6.63;;;13.60;99.90;;;;;;5091734;28;20077;-53
2021/08/09 02:47:37;;;;;;;15.27;6.75;;;13.60;99.90;;;;;;5111256;28;20145;-48
2021/08/09 02:50:08;;;;;;;16.33;6.72;;;13.60;99.90;;;;;;5073007;28;20051;-53
2021/08/09 02:52:37;;;;;;;15.80;7.00;;;13.60;99.90;;;;;;5091629;28;20071;-53
2021/08/09 02:55:04;;;;;;;13.25;7.28;;;13.60;99.90;;;;;;5089587;28;20047;-51
2021/08/09 02:57:32;;;;;;;16.45;7.03;;;13.50;99.90;;;;;;5086319;28;20093;-52
2021/08/09 02:59:59;;;;;;;22.67;7.07;;;13.50;99.90;;;;;;5109668;28;20052;-51
2021/08/09 03:02:29;;;;;;;17.35;6.68;;;13.60;99.90;;;;;;5104148;28;20522;-52
2021/08/09 03:04:57;;;;;;;15.05;6.72;;;13.50;99.90;;;;;;5091984;28;20039;-51
2021/08/09 03:07:25;;;;;;;17.40;7.50;;;13.50;99.90;;;;;;5109507;28;20047;-51
2021/08/09 03:09:52;;;;;;;14.20;7.03;;;13.50;99.90;;;;;;5110709;28;20052;-49
2021/08/09 03:12:18;;;;;;;16.38;6.72;;;13.50;99.90;;;;;;5108775;28;20051;-52
2021/08/09 03:14:50;;;;;;;17.15;6.68;;;13.50;99.90;;;;;;5057900;28;20132;-49
2021/08/09 03:17:19;;;;;;;13.65;6.80;;;13.50;99.90;;;;;;5078863;28;20478;-51
2021/08/09 03:19:45;;;;;;;20.02;7.10;;;13.50;99.90;;;;;;5091322;28;20043;-48
2021/08/09 03:22:12;;;;;;;19.30;7.35;;;13.50;99.90;;;;;;5096886;28;20772;-53
2021/08/09 03:24:39;;;;;;;12.90;6.43;;;13.50;99.90;;;;;;5092247;28;20058;-51
2021/08/09 03:27:06;;;;;;;13.82;6.95;;;13.50;99.90;;;;;;5089055;28;20048;-52
2021/08/09 03:29:32;;;;;;;19.10;7.65;;;13.50;99.90;;;;;;5106908;28;20097;-48
2021/08/09 03:32:01;;;;;;;15.63;7.18;;;13.50;99.90;;;;;;5090262;28;20055;-51
2021/08/09 03:34:27;;;;;;;17.85;7.13;;;13.50;99.90;;;;;;5108081;28;20467;-51
2021/08/09 03:36:55;;;;;;;13.10;6.55;;;13.40;99.90;;;;;;5087099;28;20112;-53
2021/08/09 03:39:25;;;;;;;14.27;5.90;;;13.40;99.90;;;;;;5066909;28;20047;-53
2021/08/09 03:41:54;;;;;;;19.13;6.57;;;13.40;99.90;;;;;;5090123;28;20043;-52
2021/08/09 03:44:23;;;;;;;20.27;6.85;;;13.40;99.90;;;;;;5115388;28;20110;-53
2021/08/09 03:46:52;;;;;;;16.35;6.78;;;13.40;99.90;;;;;;5075436;28;20052;-50
2021/08/09 03:49:21;;;;;;;13.45;7.00;;;13.30;99.90;;;;;;5090967;28;20071;-51
2021/08/09 03:51:50;;;;;;;19.92;7.47;;;13.30;99.90;;;;;;5092567;28;20100;-51
2021/08/09 03:54:17;;;;;;;17.10;7.20;;;13.30;99.90;;;;;;5087238;28;20056;-52
2021/08/09 03:56:45;;;;;;;15.52;6.95;;;13.30;99.90;;;;;;5089077;28;20059;-54
2021/08/09 03:59:11;;;;;;;17.58;7.70;;;13.30;99.90;;;;;;5088808;28;20046;-52
2021/08/09 04:01:41;;;;;;;14.23;6.72;;;13.30;99.90;;;;;;5089437;28;20158;-49
2021/08/09 04:04:10;;;;;;;13.55;6.55;;;13.30;99.90;;;;;;5072945;28;20045;-52
2021/08/09 04:06:36;;;;;;;19.05;7.22;;;13.30;99.90;;;;;;5111874;28;20081;-52
2021/08/09 04:09:03;;;;;;;15.02;6.75;;;13.30;99.90;;;;;;5093306;28;20043;-50
2021/08/09 04:11:34;;;;;;;17.77;7.57;;;13.30;99.90;;;;;;5105345;28;20077;-49
2021/08/09 04:14:02;;;;;;;13.65;6.57;;;13.30;99.90;;;;;;5096452;28;20044;-50
2021/08/09 04:16:28;;;;;;;16.55;6.38;;;13.30;99.90;;;;;;5073732;28;20172;-49
2021/08/09 04:18:55;;;;;;;15.88;6.63;;;13.40;99.90;;;;;;5091871;28;20047;-48
2021/08/09 04:21:27;;;;;;;17.35;6.95;;;13.30;99.90;;;;;;5090525;28;20059;-52
2021/08/09 04:23:53;;;;;;;;;;;13.40;99.90;;;;;;5109680;28;20052;-51
2021/08/09 04:26:20;;;;;;;17.65;6.47;;;13.40;99.90;;;;;;5087339;28;19926;-49
2021/08/09 04:28:47;;;;;;;14.57;6.38;;;13.40;99.90;;;;;;5104980;28;20130;-52
2021/08/09 04:31:14;;;;;;;15.43;6.97;;;13.40;99.90;;;;;;5088760;28;20040;-53
2021/08/09 04:33:42;;;;;;;17.33;7.32;;;13.50;99.90;;;;;;5093795;28;20044;-53
2021/08/09 04:36:08;;;;;;;16.30;6.45;;;13.50;99.90;;;;;;5108387;28;20068;-52
2021/08/09 04:38:37;;;;;;;17.50;6.93;;;13.50;99.90;;;;;;5072503;28;20085;-56
2021/08/09 04:41:10;;;;;;;12.05;6.63;;;13.60;99.90;;;;;;5091914;28;20055;-58
2021/08/09 04:43:40;;;;;;;18.77;6.15;;;13.60;99.90;;;;;;5089872;28;20059;-58
2021/08/09 04:46:13;;;;;;;13.77;6.20;;;13.70;99.90;;;;;;5089965;28;20118;-57
2021/08/09 04:48:42;;;;;;;14.23;6.32;;;13.70;99.90;;;;;;5087130;28;20796;-58
2021/08/09 04:51:11;;;;;;;18.35;6.75;;;13.70;99.90;;;;;;5112368;27;20047;-57
2021/08/09 04:53:41;;;;;;;15.35;6.68;;;13.70;99.90;;;;;;5088066;28;20052;-57
2021/08/09 04:56:09;;;;;;;14.40;6.57;;;13.80;99.90;;;;;;5086545;28;20492;-58
2021/08/09 04:58:38;;;;;;;16.67;5.97;;;13.80;99.90;;;;;;5089130;28;20040;-58
2021/08/09 05:01:05;;;;;;;13.48;5.95;;;13.80;99.90;;;;;;5086120;28;20090;-57
2021/08/09 05:03:38;;;;;;;12.05;6.13;;;13.80;99.90;;;;;;5087223;28;20052;-58
2021/08/09 05:06:15;;;;;;;13.32;5.72;;;13.90;99.90;;;;;;5087071;28;20059;-58
2021/08/09 05:08:45;;;;;;;13.05;6.22;;;13.90;99.90;;;;;;5085952;28;20117;-57
2021/08/09 05:11:14;;;;;;;15.77;6.60;;;13.90;99.90;;;;;;5085089;28;20048;-57
2021/08/09 05:13:41;;;;;;;16.63;6.10;;;13.90;99.90;;;;;;5086583;28;20052;-55
2021/08/09 05:16:07;;;;;;;20.92;10.82;;;13.90;99.90;;;;;;5085805;28;20052;-58
2021/08/09 05:18:38;;;;;;;22.45;12.57;;;14.00;99.90;;;;;;5069372;28;20051;-57
2021/08/09 05:21:05;;;;;;;13.55;6.88;;;14.00;99.90;;;;;;5087092;28;20067;-58
2021/08/09 05:23:31;;;;;;;49.58;39.80;;;14.10;99.90;;;;;;5087888;28;20056;-57
2021/08/09 05:26:00;;;;;;;21.45;10.32;;;14.10;99.90;;;;;;5086512;28;20070;-57
2021/08/09 05:28:26;;;;;;;16.30;8.70;;;14.10;99.90;;;;;;5086185;28;20055;-56
2021/08/09 05:30:57;;;;;;;15.85;7.25;;;14.10;99.90;;;;;;5084510;28;20076;-58
2021/08/09 05:33:26;;;;;;;21.10;11.20;;;14.20;99.90;;;;;;5086716;28;20108;-57
2021/08/09 05:35:53;;;;;;;43.15;38.30;;;14.20;99.90;;;;;;5085361;28;20052;-57
2021/08/09 05:38:27;;;;;;;55.33;41.10;;;14.30;99.90;;;;;;5085473;28;20120;-58
2021/08/09 05:40:56;;;;;;;28.40;18.05;;;14.30;99.90;;;;;;5085850;28;20617;-53
2021/08/09 05:43:26;;;;;;;13.82;6.35;;;14.40;99.90;;;;;;5090654;28;20035;-53
2021/08/09 05:45:53;;;;;;;16.98;7.03;;;14.30;99.90;;;;;;5086359;28;20048;-52
2021/08/09 05:48:25;;;;;;;15.32;6.22;;;14.20;99.90;;;;;;5086156;28;20083;-52
2021/08/09 05:50:55;;;;;;;14.18;5.78;;;14.20;99.90;;;;;;5086460;28;20073;-54
2021/08/09 05:53:32;;;;;;;15.32;7.05;;;14.30;99.90;;;;;;5073332;28;20059;-51
2021/08/09 05:56:01;;;;;;;15.70;5.55;;;14.30;99.90;;;;;;5069619;28;20098;-53
2021/08/09 05:58:44;;;;;;;14.55;5.38;;;14.40;99.90;;;;;;5086523;28;20075;-52
2021/08/09 06:01:15;;;;;;;16.98;5.80;;;14.40;99.90;;;;;;5086187;28;20052;-53
2021/08/09 06:03:51;;;;;;;;;;;14.50;99.90;;;;;;5090222;28;20054;-51
2021/08/09 06:06:28;;;;;;;12.57;5.78;;;14.50;99.90;;;;;;5087228;28;19947;-50
2021/08/09 06:09:33;;;;;;;15.93;5.65;;;14.70;99.90;;;;;;5083686;28;20612;-52
2021/08/09 06:12:12;;;;;;;13.13;6.30;;;14.80;99.90;;;;;;5086461;28;20142;-54
2021/08/09 06:14:42;;;;;;;10.93;5.25;;;14.90;99.90;;;;;;5086991;28;20090;-54
2021/08/09 06:17:14;;;;;;;16.05;5.53;;;14.90;99.90;;;;;;5083516;28;20524;-51
2021/08/09 06:19:51;;;;;;;15.52;5.65;;;14.90;99.90;;;;;;5087481;28;20084;-50
2021/08/09 06:22:31;;;;;;;11.02;5.47;;;15.00;99.90;;;;;;5091251;28;20495;-52
2021/08/09 06:24:58;;;;;;;18.23;8.02;;;15.00;99.90;;;;;;5089074;28;20064;-54
2021/08/09 06:27:27;;;;;;;15.93;5.47;;;15.10;99.90;;;;;;5071370;28;20450;-53
2021/08/09 06:29:57;;;;;;;15.02;4.88;;;15.30;99.90;;;;;;5091436;28;20043;-53
2021/08/09 06:32:27;;;;;;;14.88;4.95;;;15.40;99.90;;;;;;5070750;28;20086;-53
2021/08/09 06:34:56;;;;;;;13.02;4.78;;;15.60;99.90;;;;;;5068630;28;20044;-53
2021/08/09 06:37:28;;;;;;;11.60;4.60;;;15.80;99.90;;;;;;5083536;28;20185;-53
2021/08/09 06:39:55;;;;;;;12.43;5.20;;;15.90;99.90;;;;;;5070373;28;20613;-55
2021/08/09 06:42:26;;;;;;;12.80;5.00;;;16.10;99.90;;;;;;5073663;28;20052;-54
2021/08/09 06:45:09;;;;;;;11.35;5.40;;;16.20;99.90;;;;;;5072525;28;20049;-51
2021/08/09 06:47:35;;;;;;;50.10;41.08;;;16.10;99.90;;;;;;5094852;28;20048;-53
2021/08/09 06:50:02;;;;;;;25.58;11.63;;;16.30;99.90;;;;;;5090436;28;20052;-50
2021/08/09 06:52:33;;;;;;;33.97;28.08;;;16.50;99.90;;;;;;5089082;28;20095;-49
2021/08/09 06:54:59;;;;;;;15.13;5.93;;;16.80;99.90;;;;;;5088662;28;20141;-50
2021/08/09 06:57:29;;;;;;;16.90;7.63;;;17.10;99.90;;;;;;5086997;28;20048;-54
2021/08/09 06:59:57;;;;;;;19.17;5.35;;;17.30;99.90;;;;;;5089888;28;20052;-55
2021/08/09 07:02:26;;;;;;;18.52;7.93;;;17.40;99.90;;;;;;5088626;28;20399;-57
2021/08/09 07:04:52;;;;;;;19.20;9.45;;;17.50;99.90;;;;;;5092951;28;20044;-56
2021/08/09 07:07:18;;;;;;;14.43;4.60;;;17.40;99.90;;;;;;5089056;28;20044;-53
2021/08/09 07:09:45;;;;;;;12.98;5.10;;;17.30;99.90;;;;;;5069023;28;20465;-49
2021/08/09 07:12:13;;;;;;;17.35;7.80;;;17.20;99.90;;;;;;5089493;28;20404;-56
2021/08/09 07:14:40;;;;;;;65.68;57.40;;;17.10;99.90;;;;;;5088935;28;20079;-57
2021/08/09 07:17:10;;;;;;;14.50;6.40;;;17.20;99.90;;;;;;5089708;28;20048;-57
2021/08/09 07:19:37;;;;;;;13.27;4.90;;;17.30;99.90;;;;;;5088710;28;20048;-54
2021/08/09 07:22:04;;;;;;;11.13;5.97;;;17.50;99.90;;;;;;5089151;28;20052;-58
2021/08/09 07:24:34;;;;;;;13.10;4.82;;;17.80;99.90;;;;;;5087596;28;20563;-58
2021/08/09 07:27:01;;;;;;;16.73;9.85;;;17.80;99.90;;;;;;5088461;28;20040;-57
2021/08/09 07:29:29;;;;;;;16.20;5.80;;;17.70;99.90;;;;;;5087151;28;20055;-59
2021/08/09 07:31:55;;;;;;;14.90;5.80;;;17.50;99.90;;;;;;5087597;28;20047;-58
2021/08/09 07:34:22;;;;;;;22.13;11.02;;;17.30;99.90;;;;;;5085596;28;20056;-57
2021/08/09 07:36:48;;;;;;;13.35;5.10;;;17.20;99.90;;;;;;5051583;28;20048;-58
2021/08/09 07:39:14;;;;;;;12.57;5.05;;;17.10;99.90;;;;;;5076185;28;20828;-57
2021/08/09 07:41:40;;;;;;;19.48;7.90;;;17.10;99.90;;;;;;5090030;28;20495;-59
2021/08/09 07:44:07;;;;;;;12.25;4.78;;;17.10;99.90;;;;;;5088768;28;20059;-57
2021/08/09 07:46:34;;;;;;;15.43;6.20;;;17.00;99.90;;;;;;5088618;28;20071;-58
2021/08/09 07:49:00;;;;;;;11.52;4.53;;;17.00;99.90;;;;;;5090010;28;20060;-53
2021/08/09 07:51:30;;;;;;;14.63;4.32;;;17.00;99.90;;;;;;5071310;28;20405;-53
2021/08/09 07:54:00;;;;;;;14.23;4.85;;;16.90;99.90;;;;;;5090180;28;20060;-55
2021/08/09 07:56:26;;;;;;;12.35;4.40;;;16.90;99.90;;;;;;5091012;28;20048;-53
2021/08/09 07:58:53;;;;;;;14.02;3.83;;;17.00;99.90;;;;;;5088448;28;20044;-52
2021/08/09 08:01:22;;;;;;;13.80;4.25;;;16.90;99.90;;;;;;5088580;28;20075;-53
2021/08/09 08:03:51;;;;;;;16.05;4.40;;;17.10;99.90;;;;;;5088226;28;20097;-54
2021/08/09 08:06:18;;;;;;;13.18;4.32;;;17.10;99.90;;;;;;5088110;28;20048;-53
2021/08/09 08:08:44;;;;;;;12.57;4.57;;;17.20;99.90;;;;;;5094974;28;20131;-52
2021/08/09 08:11:10;;;;;;;14.43;4.10;;;17.30;99.90;;;;;;5088219;28;20056;-54
2021/08/09 08:13:39;;;;;;;12.80;4.30;;;17.40;99.90;;;;;;5087858;28;20412;-54
2021/08/09 08:16:10;;;;;;;14.38;4.07;;;17.40;99.90;;;;;;5087687;28;20137;-53
2021/08/09 08:18:37;;;;;;;11.48;4.15;;;17.40;99.90;;;;;;5088274;28;20044;-53
2021/08/09 08:21:03;;;;;;;13.20;4.78;;;17.40;99.90;;;;;;5088455;28;20068;-53
2021/08/09 08:23:34;;;;;;;15.93;4.70;;;17.60;99.90;;;;;;5088932;28;20051;-54
2021/08/09 08:26:03;;;;;;;13.48;4.00;;;17.70;99.90;;;;;;5089310;28;20063;-55
2021/08/09 08:28:32;;;;;;;15.50;4.47;;;17.90;99.90;;;;;;5089509;28;20081;-54
2021/08/09 08:31:00;;;;;;;14.00;4.10;;;17.90;99.90;;;;;;5087749;28;20296;-55
2021/08/09 08:33:27;;;;;;;11.68;4.18;;;18.20;99.90;;;;;;5087347;28;20047;-55
2021/08/09 08:35:57;;;;;;;13.48;3.97;;;18.30;99.90;;;;;;5087737;28;20135;-52
2021/08/09 08:38:26;;;;;;;12.82;3.97;;;18.40;99.90;;;;;;5090104;28;20468;-53
2021/08/09 08:40:57;;;;;;;11.88;3.65;;;18.60;99.90;;;;;;5087474;28;20052;-56
2021/08/09 08:43:27;;;;;;;9.18;3.22;;;18.80;99.90;;;;;;5086392;28;20048;-54
2021/08/09 08:45:56;;;;;;;12.07;4.20;;;18.80;99.90;;;;;;5087659;28;20131;-53
2021/08/09 08:48:28;;;;;;;14.13;3.95;;;18.90;99.90;;;;;;5087815;28;20051;-56
2021/08/09 08:50:57;;;;;;;10.13;3.50;;;19.10;99.90;;;;;;5089389;28;20956;-56
2021/08/09 08:53:27;;;;;;;10.27;3.55;;;19.60;99.90;;;;;;5093168;28;20056;-55
2021/08/09 08:55:54;;;;;;;10.57;3.40;;;19.60;99.90;;;;;;5090706;28;20047;-55
2021/08/09 08:58:23;;;;;;;12.18;3.80;;;20.00;99.90;;;;;;5113533;28;20123;-56
2021/08/09 09:00:51;;;;;;;8.65;3.03;;;20.20;99.90;;;;;;5070951;28;20059;-56
2021/08/09 09:03:25;;;;;;;11.23;3.50;;;20.30;99.90;;;;;;5089427;28;20047;-56
2021/08/09 09:05:57;;;;;;;11.68;3.33;;;20.80;99.90;;;;;;5106995;28;20051;-56
2021/08/09 09:08:47;;;;;;;8.02;2.53;;;20.70;99.90;;;;;;5106791;28;20036;-56
2021/08/09 09:11:37;;;;;;;10.65;3.17;;;20.90;99.90;;;;;;5108615;28;20051;-56
2021/08/09 09:14:05;;;;;;;9.25;2.75;;;21.00;99.90;;;;;;5112593;28;20044;-57
2021/08/09 09:16:51;;;;;;;10.20;2.92;;;21.30;99.90;;;;;;5109093;28;20100;-56
2021/08/09 09:19:36;;;;;;;9.60;2.38;;;21.80;99.50;;;;;;5107514;28;20511;-57
2021/08/09 09:22:20;;;;;;;6.93;2.47;;;22.50;98.80;;;;;;5088876;28;20056;-57
2021/08/09 09:24:51;;;;;;;6.20;2.00;;;22.50;95.90;;;;;;5101560;28;20047;-57
2021/08/09 09:27:36;;;;;;;7.80;2.50;;;22.10;92.10;;;;;;5093121;28;20047;-58
2021/08/09 09:30:27;;;;;;;5.18;1.85;;;22.30;89.30;;;;;;5107721;28;20048;-58
2021/08/09 09:33:04;;;;;;;6.40;2.35;;;22.60;85.20;;;;;;5112117;28;20048;-58
2021/08/09 09:35:36;;;;;;;6.05;1.70;;;22.60;83.00;;;;;;5109742;28;20043;-58
2021/08/09 09:38:02;;;;;;;6.82;1.90;;;22.40;79.40;;;;;;5108089;28;20043;-55
2021/08/09 09:40:41;;;;;;;6.47;1.70;;;22.70;85.50;;;;;;5108251;28;20048;-55
2021/08/09 09:43:14;;;;;;;4.55;1.73;;;22.80;78.80;;;;;;5101299;28;20544;-56
2021/08/09 09:45:53;;;;;;;5.78;2.25;;;23.00;76.00;;;;;;5107964;28;20051;-55
2021/08/09 09:48:34;;;;;;;6.43;2.30;;;23.00;77.80;;;;;;5111490;28;20048;-55
2021/08/09 09:51:12;;;;;;;5.13;1.73;;;23.10;74.70;;;;;;5107558;28;20121;-55
2021/08/09 09:53:40;;;;;;;8.88;1.88;;;22.80;72.50;;;;;;5111922;28;20048;-56
2021/08/09 09:56:09;;;;;;;7.57;1.85;;;23.20;76.40;;;;;;5089636;28;20051;-56
2021/08/09 09:58:37;;;;;;;7.95;2.05;;;23.10;74.60;;;;;;5107590;28;20063;-56
2021/08/09 10:01:04;;;;;;;6.60;1.70;;;23.10;71.30;;;;;;5107542;28;20055;-56
2021/08/09 10:03:34;;;;;;;5.63;1.55;;;23.20;76.00;;;;;;5089886;28;20058;-56
2021/08/09 10:06:02;;;;;;;6.07;1.80;;;23.00;72.90;;;;;;5107807;28;20059;-57
2021/08/09 10:08:33;;;;;;;4.60;1.67;;;23.10;73.30;;;;;;5107983;28;20047;-56
2021/08/09 10:11:03;;;;;;;6.32;1.40;;;23.50;70.90;;;;;;5087618;28;20051;-57
2021/08/09 10:13:31;;;;;;;6.13;1.37;;;23.20;69.80;;;;;;5087717;28;20052;-57
2021/08/09 10:16:07;;;;;;;4.25;1.38;;;22.60;70.00;;;;;;5087917;28;20051;-57
2021/08/09 10:18:41;;;;;;;4.57;1.65;;;22.60;70.50;;;;;;5096649;28;20075;-57
2021/08/09 10:21:08;;;;;;;6.85;1.70;;;22.50;72.90;;;;;;5107670;28;20528;-57
2021/08/09 10:23:41;;;;;;;7.00;1.85;;;21.80;74.40;;;;;;5112491;28;20039;-57
2021/08/09 10:26:31;;;;;;;5.07;1.40;;;21.40;79.00;;;;;;5089268;28;20134;-57
2021/08/09 10:29:12;;;;;;;8.48;1.70;;;21.10;80.60;;;;;;5107748;28;20104;-57
2021/08/09 10:31:40;;;;;;;5.47;1.67;;;21.00;84.30;;;;;;5089307;28;20062;-58
2021/08/09 10:34:40;;;;;;;4.28;1.63;;;20.80;86.80;;;;;;5111356;28;20043;-58
2021/08/09 10:37:13;;;;;;;7.40;1.85;;;20.70;84.60;;;;;;5110605;28;20051;-57
2021/08/09 10:40:03;;;;;;;11.07;9.38;;;20.60;90.50;;;;;;5101832;28;20040;-52
2021/08/09 10:42:36;;;;;;;14.43;8.75;;;20.70;92.90;;;;;;5111764;28;20162;-56
2021/08/09 10:45:04;;;;;;;9.23;3.17;;;20.60;92.90;;;;;;5107175;28;20487;-55
2021/08/09 10:47:46;;;;;;;8.65;2.53;;;20.60;95.30;;;;;;5089584;28;20047;-55
2021/08/09 10:50:24;;;;;;;;;;;20.50;99.30;;;;;;5109561;28;20567;-56
2021/08/09 10:52:52;;;;;;;7.28;3.80;;;20.50;99.90;;;;;;5107583;28;20372;-56
2021/08/09 10:55:42;;;;;;;7.40;3.20;;;20.40;99.90;;;;;;5088523;28;20059;-53
2021/08/09 10:58:29;;;;;;;9.98;3.28;;;20.40;99.90;;;;;;5087360;28;20125;-57
2021/08/09 11:00:56;;;;;;;8.75;3.45;;;20.30;99.90;;;;;;5087218;28;20496;-57
2021/08/09 11:03:25;;;;;;;9.43;2.45;;;20.30;99.90;;;;;;5113267;28;20118;-54
2021/08/09 11:05:54;;;;;;;8.90;4.70;;;20.40;99.90;;;;;;5110675;28;20044;-56
2021/08/09 11:08:23;;;;;;;6.45;2.45;;;20.60;99.90;;;;;;5112459;28;20043;-54
2021/08/09 11:11:01;;;;;;;6.70;2.45;;;20.60;99.90;;;;;;5110839;28;20048;-55
2021/08/09 11:13:53;;;;;;;5.55;1.83;;;20.50;99.90;;;;;;5115113;28;20047;-54
2021/08/09 11:16:33;;;;;;;66.28;59.53;;;20.20;99.90;;;;;;5091670;28;20066;-53
2021/08/09 11:19:01;;;;;;;15.55;10.73;;;20.10;99.90;;;;;;5072559;28;20091;-54
2021/08/09 11:21:28;;;;;;;55.63;49.83;;;20.10;99.90;;;;;;5107245;28;20079;-55
2021/08/09 11:23:54;;;;;;;7.60;3.13;;;19.90;99.90;;;;;;5110990;28;20075;-57
2021/08/09 11:26:23;;;;;;;5.93;2.00;;;19.80;99.90;;;;;;5109094;28;20051;-56
2021/08/09 11:29:01;;;;;;;9.00;3.85;;;19.80;99.90;;;;;;5114282;28;20399;-57
2021/08/09 11:31:47;;;;;;;7.50;2.25;;;19.80;99.90;;;;;;5110522;28;20052;-57
2021/08/09 11:34:14;;;;;;;9.35;5.55;;;19.90;99.90;;;;;;5096842;28;20479;-57
2021/08/09 11:36:41;;;;;;;6.72;2.42;;;20.00;99.90;;;;;;5110154;28;20783;-57
2021/08/09 11:39:08;;;;;;;8.48;4.72;;;20.20;99.90;;;;;;5110086;28;20044;-56
2021/08/09 11:41:34;;;;;;;4.95;2.30;;;20.50;99.90;;;;;;5109903;28;20097;-56
2021/08/09 11:44:07;;;;;;;7.78;2.50;;;20.80;99.90;;;;;;5106136;28;20054;-55
2021/08/09 11:46:47;;;;;;;8.60;3.45;;;21.00;99.90;;;;;;5103865;28;20050;-56
2021/08/09 11:49:14;;;;;;;7.00;2.25;;;21.20;99.90;;;;;;5110830;28;20055;-56
2021/08/09 11:51:41;;;;;;;10.05;2.55;;;21.50;99.90;;;;;;5109762;28;20047;-56
2021/08/09 11:54:07;;;;;;;6.78;2.45;;;21.70;99.90;;;;;;5091979;28;20083;-56
2021/08/09 11:56:34;;;;;;;7.22;3.70;;;21.70;99.90;;;;;;5109469;28;20411;-56
2021/08/09 11:59:19;;;;;;;7.40;2.40;;;21.70;99.90;;;;;;5115435;28;20537;-55
2021/08/09 12:01:49;;;;;;;8.13;2.65;;;21.60;99.90;;;;;;5109878;28;20047;-57
2021/08/09 12:04:20;;;;;;;7.13;2.33;;;21.60;99.90;;;;;;5110946;28;20062;-57
2021/08/09 12:06:57;;;;;;;8.57;2.63;;;21.60;99.90;;;;;;5110023;28;20055;-56
2021/08/09 12:09:38;;;;;;;5.43;2.30;;;21.70;99.90;;;;;;5110294;28;20104;-57
2021/08/09 12:12:11;;;;;;;7.63;2.80;;;22.10;99.90;;;;;;5113041;28;20047;-56
2021/08/09 12:14:58;;;;;;;7.10;2.63;;;22.20;99.90;;;;;;5091933;28;20051;-56
2021/08/09 12:17:25;;;;;;;7.50;3.10;;;22.00;99.90;;;;;;5091667;28;20075;-55
2021/08/09 12:19:53;;;;;;;5.85;2.30;;;21.80;99.90;;;;;;5109613;28;20044;-56
2021/08/09 12:22:39;;;;;;;9.60;2.42;;;21.60;99.90;;;;;;5117173;28;20228;-57
2021/08/09 12:25:15;;;;;;;7.18;2.80;;;21.50;99.70;;;;;;5087595;28;20044;-57
2021/08/09 12:27:42;;;;;;;6.82;2.38;;;21.60;99.90;;;;;;5089197;28;20080;-56
2021/08/09 12:30:21;;;;;;;8.07;2.28;;;21.90;99.90;;;;;;5108384;28;20657;-55
2021/08/09 12:33:01;;;;;;;4.32;2.33;;;22.10;99.90;;;;;;5107913;28;20047;-55
2021/08/09 12:35:40;;;;;;;6.78;2.17;;;22.20;99.90;;;;;;5076014;28;20093;-56
2021/08/09 12:38:07;;;;;;;4.90;1.70;;;22.30;99.90;;;;;;5104686;28;20040;-55
2021/08/09 12:40:57;;;;;;;6.75;2.42;;;22.60;99.90;;;;;;5088771;28;20058;-56
2021/08/09 12:43:26;;;;;;;7.57;2.75;;;23.20;99.90;;;;;;5102585;28;20067;-56
2021/08/09 12:45:54;;;;;;;14.00;10.40;;;23.40;95.50;;;;;;5104284;28;20044;-56
2021/08/09 12:48:21;;;;;;;16.08;12.73;;;23.80;94.70;;;;;;5102831;28;20043;-55
2021/08/09 12:50:49;;;;;;;11.27;6.43;;;22.90;94.70;;;;;;5108750;28;20095;-53
2021/08/09 12:53:17;;;;;;;10.97;4.70;;;22.90;96.00;;;;;;5108424;28;20099;-55
2021/08/09 12:55:46;;;;;;;7.03;4.32;;;22.50;96.00;;;;;;5107784;28;20048;-57
2021/08/09 12:58:16;;;;;;;8.40;3.90;;;22.10;99.90;;;;;;5090224;28;20408;-56
2021/08/09 13:00:42;;;;;;;10.50;3.45;;;21.20;99.90;;;;;;5108892;28;20139;-62